KLEX

Blue Grass Airport

Lexington, Kentucky, USA
KLEX 170329Z 1703/1724 13004KT P6SM SCT015 OVC025 TEMPO 1703/1707 OVC015 FM171000 14006KT 4SM -DZ BR OVC015 FM171400 16010KT 2SM -SHRA OVC011 FM171900 19010KT 1SM SHRA BR OVC006
Issued Valid From Valid To
Jan-17 @ 03:29 UTC
(2 hours ago)
Jan-17 @ 03:00 UTC
(3 hours ago)
Jan-18 @ 00:00 UTC
(in 18 hours)
Jan-17 @ 03:00 to Jan-17 @ 10:00
KLEX 170329Z 1703/1724 13004KT P6SM SCT015 OVC025
Wind Visibility Clouds
130° at 4 knots Greater than 6 miles
  • Scattered at 1,500' AGL
  • Overcast at 2,500' AGL
Temporary Jan-17 @ 03:00 to Jan-17 @ 07:00
TEMPO 1703/1707 OVC015
Clouds
  • Overcast at 1,500' AGL
From Jan-17 @ 10:00 to Jan-17 @ 14:00
FM171000 14006KT 4SM -DZ BR OVC015
Wind Visibility Clouds Conditions
140° at 6 knots 4 miles
  • Overcast at 1,500' AGL
  • Light Drizzle
  • Mist
From Jan-17 @ 14:00 to Jan-17 @ 19:00
FM171400 16010KT 2SM -SHRA OVC011
Wind Visibility Clouds Conditions
160° at 10 knots 2 miles
  • Overcast at 1,100' AGL
  • Light Rain
From Jan-17 @ 19:00 to Jan-18 @ 00:00
FM171900 19010KT 1SM SHRA BR OVC006
Wind Visibility Clouds Conditions
190° at 10 knots 1 miles
  • Overcast at 600' AGL
  • Rain
  • Mist
KLEX 170329Z 1703/1724 13004KT P6SM SCT015 OVC025 TEMPO 1703/1707 OVC015 FM171000 14006KT 4SM -DZ BR OVC015 FM171400 16010KT 2SM -SHRA OVC011 FM171900 19010KT 1SM SHRA BR OVC006
Issued Jan-17 @ 03:29 UTC
(2 hours ago)
Valid From Jan-17 @ 03:00 UTC
(3 hours ago)
Valid To Jan-18 @ 00:00 UTC
(in 18 hours)
Jan-17 @ 03:00 - Jan-17 @ 10:00
Wind Visibility
130° at 4 knots Greater than 6 miles
Clouds
  • Scattered at 1,500' AGL
  • Overcast at 2,500' AGL
Temporary Jan-17 @ 03:00 - Jan-17 @ 07:00
Clouds
  • Overcast at 1,500' AGL
From Jan-17 @ 10:00 - Jan-17 @ 14:00
Wind Visibility
140° at 6 knots 4 miles
Clouds
  • Overcast at 1,500' AGL
Conditions
  • Light Drizzle
  • Mist
From Jan-17 @ 14:00 - Jan-17 @ 19:00
Wind Visibility
160° at 10 knots 2 miles
Clouds
  • Overcast at 1,100' AGL
Conditions
  • Light Rain
From Jan-17 @ 19:00 - Jan-18 @ 00:00
Wind Visibility
190° at 10 knots 1 miles
Clouds
  • Overcast at 600' AGL
Conditions
  • Rain
  • Mist